createdAt,value
2022-12-18T00:00:31.607Z,86.14
2022-12-18T00:01:31.650Z,86.29
2022-12-18T00:02:31.638Z,86.14
2022-12-18T00:03:31.726Z,85.64
2022-12-18T00:04:31.627Z,85.86
2022-12-18T00:05:31.548Z,85.82
2022-12-18T00:06:31.537Z,85.28
2022-12-18T00:07:31.544Z,85.07
2022-12-18T00:08:31.558Z,84.33
2022-12-18T00:09:39.722Z,84.61
2022-12-18T00:10:31.513Z,84.39
2022-12-18T00:11:31.496Z,84.39
2022-12-18T00:12:31.494Z,84.25
2022-12-18T00:13:31.480Z,84.14
2022-12-18T00:14:31.488Z,83.15
2022-12-18T00:15:31.471Z,83.26
2022-12-18T00:16:31.524Z,82.76
2022-12-18T00:17:31.460Z,82.65
2022-12-18T00:18:31.440Z,82.76
2022-12-18T00:19:31.431Z,82.94
2022-12-18T00:20:31.411Z,83.19
2022-12-18T00:21:31.444Z,83.12
2022-12-18T00:22:31.413Z,83.72
2022-12-18T00:23:31.394Z,84.68
2022-12-18T00:24:31.379Z,84.82
2022-12-18T00:25:31.373Z,84.14
2022-12-18T00:26:31.376Z,84.08
2022-12-18T00:27:31.370Z,84.36
2022-12-18T00:28:31.346Z,84.36
2022-12-18T00:29:31.331Z,84.04
2022-12-18T00:30:32.323Z,83.76
2022-12-18T00:31:31.374Z,83.65
2022-12-18T00:32:31.331Z,84.14
2022-12-18T00:33:31.323Z,83.94
2022-12-18T00:34:31.333Z,84.36
2022-12-18T00:35:31.304Z,84.19
2022-12-18T00:36:31.281Z,84.04
2022-12-18T00:37:31.268Z,83.86
2022-12-18T00:38:31.283Z,84.19
2022-12-18T00:39:31.255Z,84.39
2022-12-18T00:40:31.239Z,84.33
2022-12-18T00:41:31.254Z,84.33
2022-12-18T00:42:31.226Z,84.05
2022-12-18T00:43:31.215Z,83.62
2022-12-18T00:44:31.204Z,83.12
2022-12-18T00:45:31.310Z,83.40
2022-12-18T00:46:31.197Z,83.83
2022-12-18T00:47:31.166Z,83.40
2022-12-18T00:48:31.182Z,82.70
2022-12-18T00:49:31.151Z,82.66
2022-12-18T00:50:31.140Z,83.09
2022-12-18T00:51:31.153Z,82.94
2022-12-18T00:52:31.139Z,83.09
2022-12-18T00:53:31.130Z,82.09
2022-12-18T00:54:31.178Z,82.20
2022-12-18T00:55:31.106Z,81.35
2022-12-18T00:56:31.085Z,81.77
2022-12-18T00:57:31.090Z,81.56
2022-12-18T00:58:31.075Z,82.41
2022-12-18T00:59:31.101Z,81.81
2022-12-18T01:00:31.070Z,82.02
2022-12-18T01:01:31.159Z,82.38
2022-12-18T01:02:31.205Z,82.45
2022-12-18T01:03:32.056Z,82.66
2022-12-18T01:04:31.047Z,81.74
2022-12-18T01:05:31.003Z,81.81
2022-12-18T01:06:31.005Z,82.17
2022-12-18T01:07:30.997Z,81.42
2022-12-18T01:08:31.001Z,82.27
2022-12-18T01:09:30.967Z,82.17
2022-12-18T01:10:30.977Z,81.77
2022-12-18T01:11:30.980Z,82.42
2022-12-18T01:12:30.947Z,82.73
2022-12-18T01:13:30.949Z,83.69
2022-12-18T01:14:30.942Z,82.95
2022-12-18T01:15:30.911Z,83.55
2022-12-18T01:16:31.012Z,82.91
2022-12-18T01:17:30.926Z,83.12
2022-12-18T01:18:30.885Z,83.44
2022-12-18T01:19:30.894Z,83.55
2022-12-18T01:20:30.889Z,83.23
2022-12-18T01:21:30.851Z,84.08
2022-12-18T01:22:30.863Z,83.65
2022-12-18T01:23:30.844Z,83.55
2022-12-18T01:24:30.846Z,82.81
2022-12-18T01:25:30.857Z,82.91
2022-12-18T01:26:30.821Z,83.55
2022-12-18T01:27:30.819Z,82.38
2022-12-18T01:28:30.792Z,82.31
2022-12-18T01:29:30.792Z,83.37
2022-12-18T01:30:30.804Z,83.16
2022-12-18T01:31:30.871Z,83.37
2022-12-18T01:32:30.769Z,83.73
2022-12-18T01:33:30.764Z,84.16
2022-12-18T01:34:30.759Z,84.97
2022-12-18T01:35:30.757Z,84.51
2022-12-18T01:36:30.747Z,84.12
2022-12-18T01:37:30.718Z,83.91
2022-12-18T01:38:30.700Z,83.91
2022-12-18T01:39:30.718Z,84.16
2022-12-18T01:40:30.686Z,84.16
2022-12-18T01:41:30.680Z,84.37
2022-12-18T01:42:30.680Z,84.48
2022-12-18T01:43:30.665Z,85.12
2022-12-18T01:44:30.681Z,85.44
2022-12-18T01:45:30.678Z,85.80
2022-12-18T01:46:30.637Z,86.22
2022-12-18T01:47:30.627Z,86.33
2022-12-18T01:48:30.623Z,86.29
2022-12-18T01:49:30.629Z,86.19
2022-12-18T01:50:30.616Z,86.29
2022-12-18T01:51:30.619Z,85.76
2022-12-18T01:52:30.591Z,84.97
2022-12-18T01:53:30.581Z,84.97
2022-12-18T01:54:30.578Z,84.87
2022-12-18T01:55:30.583Z,84.55
2022-12-18T01:56:30.556Z,84.55
2022-12-18T01:57:30.549Z,84.01
2022-12-18T01:58:30.534Z,83.91
2022-12-18T01:59:30.549Z,83.27
2022-12-18T02:00:30.520Z,83.55
2022-12-18T02:01:30.599Z,82.91
2022-12-18T02:02:30.659Z,83.34
2022-12-18T02:03:30.499Z,83.34
2022-12-18T02:04:30.476Z,82.17
2022-12-18T02:05:30.467Z,82.27
2022-12-18T02:06:30.501Z,82.27
2022-12-18T02:07:30.449Z,81.67
2022-12-18T02:08:30.450Z,82.70
2022-12-18T02:09:30.444Z,81.74
2022-12-18T02:10:30.447Z,82.06
2022-12-18T02:11:30.407Z,82.17
2022-12-18T02:12:30.406Z,81.99
2022-12-18T02:13:30.471Z,82.27
2022-12-18T02:14:30.416Z,81.85
2022-12-18T02:15:30.401Z,81.99
2022-12-18T02:16:30.488Z,81.88
2022-12-18T02:17:30.359Z,81.24
2022-12-18T02:18:30.355Z,81.07
2022-12-18T02:19:30.364Z,81.46
2022-12-18T02:20:30.377Z,81.07
2022-12-18T02:21:30.335Z,81.13
2022-12-18T02:22:30.347Z,81.28
2022-12-18T02:23:30.318Z,81.38
2022-12-18T02:24:30.284Z,80.32
2022-12-18T02:25:31.289Z,80.96
2022-12-18T02:26:30.279Z,80.10
2022-12-18T02:27:30.300Z,79.89
2022-12-18T02:28:30.272Z,79.89
2022-12-18T02:29:30.332Z,79.57
2022-12-18T02:30:30.316Z,79.68
2022-12-18T02:31:30.240Z,79.28
2022-12-18T02:32:30.258Z,79.82
2022-12-18T02:33:30.249Z,79.71
2022-12-18T02:34:30.230Z,79.93
2022-12-18T02:35:30.218Z,80.25
2022-12-18T02:36:30.220Z,80.46
2022-12-18T02:37:30.174Z,80.99
2022-12-18T02:38:30.167Z,80.78
2022-12-18T02:39:30.160Z,80.68
2022-12-18T02:40:30.163Z,80.74
2022-12-18T02:41:30.137Z,81.21
2022-12-18T02:42:30.154Z,80.35
2022-12-18T02:43:30.113Z,80.60
2022-12-18T02:44:30.109Z,80.14
2022-12-18T02:45:30.276Z,80.35
2022-12-18T02:46:30.103Z,80.25
2022-12-18T02:47:30.108Z,79.93
2022-12-18T02:48:30.101Z,80.25
2022-12-18T02:49:30.096Z,80.07
2022-12-18T02:50:30.075Z,80.25
2022-12-18T02:51:30.059Z,80.25
2022-12-18T02:52:30.039Z,80.35
2022-12-18T02:53:30.047Z,80.39
2022-12-18T02:54:30.032Z,80.39
2022-12-18T02:55:30.024Z,80.43
2022-12-18T02:56:30.036Z,80.54
2022-12-18T02:57:30.019Z,80.75
2022-12-18T02:58:30.022Z,81.07
2022-12-18T02:59:29.981Z,80.21
2022-12-18T03:00:29.996Z,80.21
2022-12-18T03:01:30.162Z,80.32
2022-12-18T03:02:30.091Z,80.39
2022-12-18T03:03:29.994Z,80.18
2022-12-18T03:04:29.951Z,79.53
2022-12-18T03:05:29.936Z,78.93
2022-12-18T03:06:29.926Z,79.14
2022-12-18T03:07:29.904Z,78.93
2022-12-18T03:08:29.918Z,78.97
2022-12-18T03:09:29.898Z,78.54
2022-12-18T03:10:29.910Z,79.04
2022-12-18T03:11:29.885Z,79.18
2022-12-18T03:12:29.872Z,78.61
2022-12-18T03:13:29.863Z,78.93
2022-12-18T03:14:29.857Z,78.61
2022-12-18T03:16:48.516Z,78.75
2022-12-18T03:17:48.326Z,79.79
2022-12-18T03:18:48.318Z,78.72
2022-12-18T03:19:48.311Z,79.04
2022-12-18T03:20:48.296Z,78.72
2022-12-18T03:21:48.311Z,78.50
2022-12-18T03:22:48.282Z,78.29
2022-12-18T03:23:48.276Z,78.29
2022-12-18T03:24:48.274Z,78.36
2022-12-18T03:25:49.387Z,78.68
2022-12-18T03:26:49.421Z,77.94
2022-12-18T03:27:49.373Z,78.15
2022-12-18T03:28:49.383Z,78.08
2022-12-18T03:29:49.367Z,78.50
2022-12-18T03:30:49.344Z,78.22
2022-12-18T03:31:49.341Z,78.11
2022-12-18T03:32:49.401Z,78.33
2022-12-18T03:33:49.422Z,78.68
2022-12-18T03:34:49.317Z,79.11
2022-12-18T03:35:49.299Z,79.86
2022-12-18T03:36:49.282Z,80.18
2022-12-18T03:37:49.278Z,80.60
2022-12-18T03:38:49.313Z,80.50
2022-12-18T03:39:49.260Z,80.71
2022-12-18T03:40:49.272Z,80.50
2022-12-18T03:41:49.251Z,80.46
2022-12-18T03:42:49.236Z,80.46
2022-12-18T03:43:49.234Z,80.35
2022-12-18T03:44:49.263Z,80.18
2022-12-18T03:45:49.294Z,80.18
2022-12-18T03:46:49.218Z,79.61
2022-12-18T03:47:49.207Z,79.93
2022-12-18T03:48:50.253Z,78.64
2022-12-18T03:49:49.183Z,79.11
2022-12-18T03:50:49.174Z,78.86
2022-12-18T03:51:49.180Z,78.86
2022-12-18T03:52:49.148Z,78.97
2022-12-18T03:53:49.143Z,79.07
2022-12-18T03:54:49.167Z,78.43
2022-12-18T03:55:49.113Z,78.43
2022-12-18T03:56:49.133Z,78.57
2022-12-18T03:57:49.117Z,78.64
2022-12-18T03:58:49.105Z,78.14
2022-12-18T03:59:49.110Z,77.79
2022-12-18T04:00:49.100Z,78.22
2022-12-18T04:01:50.146Z,78.22
2022-12-18T04:02:49.234Z,77.79
2022-12-18T04:03:49.158Z,77.93
2022-12-18T04:04:49.125Z,78.22
2022-12-18T04:05:49.075Z,78.36
2022-12-18T04:06:49.032Z,78.64
2022-12-18T04:07:49.023Z,78.57
2022-12-18T04:08:49.033Z,78.64
2022-12-18T04:09:49.006Z,78.14
2022-12-18T04:10:49.004Z,78.14
2022-12-18T04:11:49.015Z,78.54
2022-12-18T04:12:48.972Z,78.47
2022-12-18T04:13:48.986Z,78.54
2022-12-18T04:14:48.972Z,78.43
2022-12-18T04:15:48.970Z,78.33
2022-12-18T04:16:48.941Z,78.54
2022-12-18T04:17:48.938Z,78.64
2022-12-18T04:18:48.938Z,78.47
2022-12-18T04:19:48.918Z,77.93
2022-12-18T04:20:48.975Z,78.47
2022-12-18T04:21:48.929Z,78.25
2022-12-18T04:22:48.886Z,78.36
2022-12-18T04:23:48.882Z,78.97
2022-12-18T04:24:48.879Z,78.54
2022-12-18T04:25:48.865Z,79.00
2022-12-18T04:26:49.881Z,79.00
2022-12-18T04:27:48.862Z,78.33
2022-12-18T04:28:48.832Z,78.57
2022-12-18T04:29:48.825Z,78.64
2022-12-18T04:30:48.881Z,78.97
2022-12-18T04:31:48.815Z,78.75
2022-12-18T04:32:52.174Z,78.75
2022-12-18T04:33:49.792Z,78.86
2022-12-18T04:34:48.786Z,78.61
2022-12-18T04:35:48.790Z,78.61
2022-12-18T04:36:54.621Z,78.40
2022-12-18T04:37:49.846Z,78.22
2022-12-18T04:38:48.754Z,78.93
2022-12-18T04:39:48.734Z,78.97
2022-12-18T04:40:48.756Z,78.61
2022-12-18T04:41:48.721Z,79.18
2022-12-18T04:42:48.762Z,79.39
2022-12-18T04:43:48.709Z,78.54
2022-12-18T04:44:48.695Z,79.07
2022-12-18T04:45:48.705Z,78.14
2022-12-18T04:46:48.763Z,78.54
2022-12-18T04:47:48.668Z,78.25
2022-12-18T04:48:48.668Z,78.43
2022-12-18T04:49:48.658Z,78.57
2022-12-18T04:50:48.664Z,78.25
2022-12-18T04:51:48.626Z,77.79
2022-12-18T04:52:48.621Z,77.69
2022-12-18T04:53:48.693Z,77.58
2022-12-18T04:54:48.600Z,77.40
2022-12-18T04:55:48.602Z,77.72
2022-12-18T04:56:48.610Z,76.43
2022-12-18T04:57:48.583Z,77.11
2022-12-18T04:58:48.592Z,76.33
2022-12-18T04:59:48.581Z,77.50
2022-12-18T05:00:49.546Z,77.33
2022-12-18T05:01:48.656Z,77.29
2022-12-18T05:02:48.631Z,77.19
2022-12-18T05:03:48.585Z,77.75
2022-12-18T05:04:49.555Z,77.47
2022-12-18T05:05:48.524Z,78.08
2022-12-18T05:06:49.505Z,78.18
2022-12-18T05:07:48.497Z,78.29
2022-12-18T05:08:48.485Z,78.39
2022-12-18T05:09:48.580Z,78.18
2022-12-18T05:10:48.501Z,78.29
2022-12-18T05:11:48.481Z,78.29
2022-12-18T05:12:48.470Z,78.29
2022-12-18T05:13:48.456Z,78.29
2022-12-18T05:14:48.451Z,78.08
2022-12-18T05:15:48.463Z,77.86
2022-12-18T05:16:48.423Z,78.50
2022-12-18T05:17:48.433Z,78.29
2022-12-18T05:18:48.419Z,77.86
2022-12-18T05:19:48.438Z,78.04
2022-12-18T05:20:48.389Z,77.75
2022-12-18T05:21:48.378Z,77.86
2022-12-18T05:22:48.374Z,77.65
2022-12-18T05:23:48.369Z,77.97
2022-12-18T05:24:48.364Z,77.97
2022-12-18T05:25:48.416Z,77.86
2022-12-18T05:26:48.319Z,77.75
2022-12-18T05:27:48.317Z,77.11
2022-12-18T05:28:48.301Z,77.33
2022-12-18T05:29:48.312Z,77.97
2022-12-18T05:30:48.288Z,77.00
2022-12-18T05:31:48.336Z,77.86
2022-12-18T05:32:48.283Z,77.43
2022-12-18T05:33:48.273Z,77.11
2022-12-18T05:34:48.278Z,77.43
2022-12-18T05:35:48.244Z,77.33
2022-12-18T05:36:48.237Z,77.54
2022-12-18T05:37:48.246Z,77.68
2022-12-18T05:38:48.222Z,77.22
2022-12-18T05:39:48.220Z,77.65
2022-12-18T05:40:48.235Z,76.79
2022-12-18T05:41:48.296Z,76.47
2022-12-18T05:42:48.194Z,77.11
2022-12-18T05:43:48.206Z,76.90
2022-12-18T05:44:48.159Z,77.04
2022-12-18T05:45:48.159Z,76.93
2022-12-18T05:46:48.183Z,76.82
2022-12-18T05:47:48.166Z,77.25
2022-12-18T05:48:48.130Z,76.61
2022-12-18T05:49:48.124Z,77.18
2022-12-18T05:50:48.117Z,76.43
2022-12-18T05:51:48.105Z,77.08
2022-12-18T05:52:48.125Z,77.72
2022-12-18T05:53:48.085Z,77.61
2022-12-18T05:54:48.081Z,77.39
2022-12-18T05:55:48.091Z,77.50
2022-12-18T05:56:49.060Z,77.43
2022-12-18T05:57:49.154Z,77.75
2022-12-18T05:58:48.051Z,78.14
2022-12-18T05:59:48.035Z,77.86
2022-12-18T06:00:48.059Z,78.07
2022-12-18T06:01:48.127Z,78.28
2022-12-18T06:02:48.090Z,78.28
2022-12-18T06:03:48.176Z,78.07
2022-12-18T06:04:47.994Z,78.82
2022-12-18T06:05:47.987Z,78.57
2022-12-18T06:06:47.983Z,78.68
2022-12-18T06:07:47.968Z,78.47
2022-12-18T06:08:47.995Z,78.43
2022-12-18T06:09:47.958Z,78.53
2022-12-18T06:10:47.938Z,78.32
2022-12-18T06:11:47.926Z,78.32
2022-12-18T06:12:47.926Z,77.68
2022-12-18T06:13:48.004Z,78.32
2022-12-18T06:14:47.904Z,77.36
2022-12-18T06:15:47.940Z,77.68
2022-12-18T06:16:47.884Z,77.36
2022-12-18T06:17:47.870Z,77.79
2022-12-18T06:18:47.881Z,78.32
2022-12-18T06:19:47.881Z,78.08
2022-12-18T06:20:47.852Z,78.18
2022-12-18T06:21:47.844Z,77.47
2022-12-18T06:22:47.837Z,76.36
2022-12-18T06:23:47.829Z,76.18
2022-12-18T06:24:47.835Z,76.07
2022-12-18T06:25:47.802Z,76.50
2022-12-18T06:26:47.794Z,76.29
2022-12-18T06:27:47.791Z,76.54
2022-12-18T06:28:47.789Z,76.43
2022-12-18T06:29:47.885Z,77.08
2022-12-18T06:30:47.770Z,76.93
2022-12-18T06:31:47.810Z,76.93
2022-12-18T06:32:50.498Z,77.61
2022-12-18T06:33:48.764Z,76.29
2022-12-18T06:34:47.725Z,76.18
2022-12-18T06:35:47.729Z,76.54
2022-12-18T06:36:47.720Z,77.15
2022-12-18T06:37:47.705Z,76.93
2022-12-18T06:38:47.720Z,77.18
2022-12-18T06:39:47.698Z,77.29
2022-12-18T06:40:47.675Z,76.82
2022-12-18T06:41:47.683Z,77.15
2022-12-18T06:42:47.675Z,77.25
2022-12-18T06:43:47.659Z,76.82
2022-12-18T06:44:47.666Z,76.26
2022-12-18T06:45:47.777Z,76.18
2022-12-18T06:46:47.625Z,75.72
2022-12-18T06:47:47.628Z,75.86
2022-12-18T06:48:47.615Z,75.54
2022-12-18T06:49:47.607Z,75.43
2022-12-18T06:50:47.618Z,75.68
2022-12-18T06:51:47.599Z,75.90
2022-12-18T06:52:47.588Z,76.00
2022-12-18T06:53:47.583Z,75.68
2022-12-18T06:54:47.568Z,76.43
2022-12-18T06:55:47.559Z,76.86
2022-12-18T06:56:47.563Z,76.97
2022-12-18T06:57:47.551Z,76.40
2022-12-18T06:58:47.528Z,76.90
2022-12-18T06:59:47.512Z,76.72
2022-12-18T07:00:48.552Z,77.22
2022-12-18T07:01:47.844Z,75.62
2022-12-18T07:02:47.614Z,75.83
2022-12-18T07:03:47.504Z,75.65
2022-12-18T07:04:47.470Z,76.15
2022-12-18T07:05:47.459Z,75.58
2022-12-18T07:06:47.440Z,75.29
2022-12-18T07:07:47.442Z,75.40
2022-12-18T07:08:47.447Z,75.08
2022-12-18T07:09:47.444Z,74.87
2022-12-18T07:10:50.648Z,74.97
2022-12-18T07:11:48.419Z,75.18
2022-12-18T07:12:47.402Z,75.29
2022-12-18T07:13:47.396Z,74.97
2022-12-18T07:14:47.406Z,75.29
2022-12-18T07:15:47.405Z,75.33
2022-12-18T07:16:47.392Z,75.22
2022-12-18T07:17:47.437Z,75.11
2022-12-18T07:18:47.346Z,75.22
2022-12-18T07:19:47.356Z,75.25
2022-12-18T07:20:47.790Z,74.93
2022-12-18T07:21:47.312Z,75.15
2022-12-18T07:22:50.796Z,75.36
2022-12-18T07:23:48.307Z,75.90
2022-12-18T07:24:47.291Z,76.32
2022-12-18T07:25:47.308Z,75.90
2022-12-18T07:26:47.274Z,75.57
2022-12-18T07:27:47.275Z,75.68
2022-12-18T07:28:47.288Z,75.57
2022-12-18T07:29:47.266Z,75.65
2022-12-18T07:30:47.254Z,75.76
2022-12-18T07:31:47.279Z,75.65
2022-12-18T07:32:47.242Z,76.18
2022-12-18T07:33:47.313Z,76.18
2022-12-18T07:34:47.214Z,76.07
2022-12-18T07:35:47.213Z,76.21
2022-12-18T07:36:47.196Z,75.97
2022-12-18T07:37:47.197Z,76.26
2022-12-18T07:38:47.191Z,75.76
2022-12-18T07:39:47.188Z,75.86
2022-12-18T07:40:47.158Z,75.86
2022-12-18T07:41:47.670Z,75.08
2022-12-18T07:42:47.154Z,75.18
2022-12-18T07:43:47.136Z,75.08
2022-12-18T07:44:47.122Z,75.18
2022-12-18T07:45:47.184Z,75.40
2022-12-18T07:46:47.114Z,75.40
2022-12-18T07:47:47.112Z,75.26
2022-12-18T07:48:50.033Z,74.90
2022-12-18T07:49:47.155Z,74.02
2022-12-18T07:50:47.090Z,73.63
2022-12-18T07:51:47.082Z,72.64
2022-12-18T07:52:47.051Z,71.19
2022-12-18T07:53:49.688Z,69.98
2022-12-18T07:54:47.049Z,69.42
2022-12-18T07:56:24.873Z,69.18
2022-12-18T07:56:49.062Z,68.19
2022-12-18T07:57:51.964Z,66.99
2022-12-18T07:58:49.003Z,66.42
2022-12-18T07:59:46.992Z,65.97
2022-12-18T08:00:46.997Z,65.09
2022-12-18T08:01:47.084Z,64.88
2022-12-18T08:02:47.042Z,63.92
2022-12-18T08:03:46.960Z,64.53
2022-12-18T08:04:46.944Z,64.43
2022-12-18T08:05:47.006Z,63.12
2022-12-18T08:06:48.181Z,63.34
2022-12-18T08:07:47.935Z,62.78
2022-12-18T08:08:46.915Z,62.78
2022-12-18T08:09:46.895Z,62.88
2022-12-18T08:10:46.890Z,62.43
2022-12-18T08:11:46.905Z,61.47
2022-12-18T08:12:46.885Z,61.80
2022-12-18T08:13:46.870Z,61.19
2022-12-18T08:14:46.865Z,61.08
2022-12-18T08:15:47.350Z,62.04
2022-12-18T08:16:46.880Z,62.04
2022-12-18T08:17:46.835Z,62.04
2022-12-18T08:18:46.807Z,63.42
2022-12-18T08:19:46.810Z,63.31
2022-12-18T08:20:46.799Z,64.05
2022-12-18T08:21:46.867Z,63.10
2022-12-18T08:22:46.791Z,62.32
2022-12-18T08:23:47.186Z,62.96
2022-12-18T08:24:46.763Z,62.32
2022-12-18T08:25:46.767Z,61.93
2022-12-18T08:27:06.792Z,62.14
2022-12-18T08:27:48.734Z,61.61
2022-12-18T08:28:46.726Z,63.17
2022-12-18T08:29:46.711Z,63.49
2022-12-18T08:30:46.798Z,63.20
2022-12-18T08:31:46.800Z,63.20
2022-12-18T08:32:46.672Z,63.63
2022-12-18T08:33:46.669Z,63.73
2022-12-18T08:34:46.680Z,63.84
2022-12-18T08:35:46.671Z,64.76
2022-12-18T08:36:46.695Z,64.20
2022-12-18T08:37:46.715Z,64.13
2022-12-18T08:38:46.617Z,63.78
2022-12-18T08:39:46.640Z,63.57
2022-12-18T08:40:46.615Z,63.65
2022-12-18T08:41:46.600Z,63.43
2022-12-18T08:42:46.585Z,63.22
2022-12-18T08:43:46.572Z,61.87
2022-12-18T08:44:46.579Z,61.90
2022-12-18T08:45:46.693Z,62.83
2022-12-18T08:46:47.550Z,62.12
2022-12-18T08:47:46.579Z,62.12
2022-12-18T08:48:46.548Z,63.17
2022-12-18T08:49:46.524Z,62.93
2022-12-18T08:50:46.534Z,62.80
2022-12-18T08:51:46.493Z,61.95
2022-12-18T08:52:46.505Z,61.87
2022-12-18T08:53:46.567Z,62.22
2022-12-18T08:54:46.473Z,62.40
2022-12-18T08:55:50.225Z,61.55
2022-12-18T08:56:47.473Z,62.27
2022-12-18T08:57:46.444Z,62.06
2022-12-18T08:58:46.434Z,62.24
2022-12-18T08:59:46.423Z,61.95
2022-12-18T09:00:46.402Z,61.74
2022-12-18T09:01:46.570Z,63.75
2022-12-18T09:02:46.588Z,64.20
2022-12-18T09:03:46.382Z,64.00
2022-12-18T09:04:47.389Z,64.28
2022-12-18T09:05:47.388Z,65.02
2022-12-18T09:06:46.350Z,64.39
2022-12-18T09:07:46.370Z,62.88
2022-12-18T09:08:46.331Z,61.95
2022-12-18T09:09:46.402Z,61.82
2022-12-18T09:10:46.322Z,62.45
2022-12-18T09:11:46.343Z,61.26
2022-12-18T09:12:46.290Z,62.11
2022-12-18T09:13:46.308Z,61.36
2022-12-18T09:14:46.275Z,61.47
2022-12-18T09:16:18.211Z,62.11
2022-12-18T09:16:46.359Z,63.20
2022-12-18T09:17:46.272Z,63.30
2022-12-18T09:18:46.276Z,63.09
2022-12-18T09:19:46.246Z,64.36
2022-12-18T09:20:46.230Z,64.78
2022-12-18T09:21:48.251Z,65.10
2022-12-18T09:22:47.252Z,64.15
2022-12-18T09:23:46.224Z,63.72
2022-12-18T09:24:46.222Z,63.40
2022-12-18T09:25:46.259Z,64.43
2022-12-18T09:26:47.249Z,64.65
2022-12-18T09:27:46.165Z,64.36
2022-12-18T09:28:46.177Z,63.93
2022-12-18T09:29:46.178Z,63.85
2022-12-18T09:30:46.236Z,64.28
2022-12-18T09:31:46.131Z,64.57
2022-12-18T09:32:46.127Z,63.77
2022-12-18T09:33:46.140Z,63.77
2022-12-18T09:34:46.189Z,64.51
2022-12-18T09:35:46.113Z,64.43
2022-12-18T09:36:46.102Z,64.83
2022-12-18T09:37:46.108Z,64.30
2022-12-18T09:38:46.076Z,63.80
2022-12-18T09:39:46.064Z,63.93
2022-12-18T09:40:46.061Z,64.25
2022-12-18T09:41:46.163Z,64.89
2022-12-18T09:42:46.109Z,64.12
2022-12-18T09:43:46.062Z,65.07
2022-12-18T09:44:46.122Z,64.86
2022-12-18T09:45:46.087Z,65.28
2022-12-18T09:46:46.124Z,65.52
2022-12-18T09:47:46.019Z,66.79
2022-12-18T09:48:46.000Z,66.47
2022-12-18T09:49:45.976Z,66.58
2022-12-18T09:50:45.964Z,66.47
2022-12-18T09:51:46.001Z,66.27
2022-12-18T09:52:45.941Z,66.79
2022-12-18T09:53:45.946Z,67.22
2022-12-18T09:54:45.998Z,67.22
2022-12-18T09:55:45.925Z,67.78
2022-12-18T09:56:45.949Z,66.69
2022-12-18T09:57:45.983Z,68.27
2022-12-18T09:58:45.889Z,68.38
2022-12-18T09:59:45.910Z,68.59
2022-12-18T10:00:45.871Z,68.20
2022-12-18T10:01:47.409Z,68.17
2022-12-18T10:02:46.983Z,68.49
2022-12-18T10:03:45.866Z,68.59
2022-12-18T10:04:45.950Z,68.67
2022-12-18T10:05:45.826Z,68.56
2022-12-18T10:06:45.838Z,67.82
2022-12-18T10:07:45.834Z,67.90
2022-12-18T10:08:45.840Z,67.58
2022-12-18T10:09:45.808Z,68.00
2022-12-18T10:10:45.795Z,67.90
2022-12-18T10:11:45.759Z,68.53
2022-12-18T10:12:45.755Z,69.67
2022-12-18T10:13:45.817Z,68.79
2022-12-18T10:14:45.785Z,68.05
2022-12-18T10:15:45.822Z,68.40
2022-12-18T10:16:45.739Z,68.18
2022-12-18T10:17:45.702Z,68.82
2022-12-18T10:18:45.701Z,67.76
2022-12-18T10:19:45.685Z,66.56
2022-12-18T10:20:45.733Z,66.78
2022-12-18T10:21:45.671Z,66.60
2022-12-18T10:22:45.667Z,66.60
2022-12-18T10:23:48.413Z,67.73
2022-12-18T10:24:46.666Z,67.73
2022-12-18T10:25:45.668Z,68.15
2022-12-18T10:26:45.629Z,67.83
2022-12-18T10:27:45.646Z,68.57
2022-12-18T10:28:45.630Z,68.02
2022-12-18T10:29:46.678Z,66.82
2022-12-18T10:30:45.647Z,66.72
2022-12-18T10:31:45.640Z,66.08
2022-12-18T10:32:45.612Z,66.40
2022-12-18T10:33:45.584Z,66.33
2022-12-18T10:34:45.582Z,65.91
2022-12-18T10:35:45.568Z,66.78
2022-12-18T10:36:45.610Z,67.28
2022-12-18T10:37:45.543Z,67.94
2022-12-18T10:38:45.551Z,66.88
2022-12-18T10:39:45.545Z,66.85
2022-12-18T10:40:45.564Z,66.36
2022-12-18T10:41:45.668Z,66.67
2022-12-18T10:42:45.509Z,67.94
2022-12-18T10:43:45.495Z,68.08
2022-12-18T10:44:45.490Z,68.40
2022-12-18T10:45:45.559Z,69.21
2022-12-18T10:46:45.582Z,68.86
2022-12-18T10:47:45.451Z,68.57
2022-12-18T10:48:45.487Z,68.86
2022-12-18T10:49:45.416Z,68.33
2022-12-18T10:51:10.242Z,68.02
2022-12-18T10:51:47.403Z,68.41
2022-12-18T10:52:45.386Z,69.25
2022-12-18T10:53:46.397Z,69.22
2022-12-18T10:54:45.405Z,69.22
2022-12-18T10:55:45.374Z,68.80
2022-12-18T10:56:45.378Z,68.06
2022-12-18T10:57:45.372Z,68.48
2022-12-18T10:58:45.771Z,68.38
2022-12-18T10:59:45.343Z,67.93
2022-12-18T11:00:45.318Z,68.38
2022-12-18T11:01:45.467Z,67.61
2022-12-18T11:02:45.484Z,68.24
2022-12-18T11:03:45.392Z,68.03
2022-12-18T11:04:45.298Z,67.74
2022-12-18T11:05:45.307Z,67.64
2022-12-18T11:06:45.272Z,70.17
2022-12-18T11:07:45.259Z,70.94
2022-12-18T11:08:45.337Z,70.38
2022-12-18T11:09:45.268Z,70.31
2022-12-18T11:10:45.276Z,70.38
2022-12-18T11:11:45.245Z,71.68
2022-12-18T11:12:45.224Z,72.31
2022-12-18T11:13:45.195Z,71.78
2022-12-18T11:14:47.440Z,71.33
2022-12-18T11:15:45.223Z,71.58
2022-12-18T11:17:03.183Z,71.47
2022-12-18T11:17:47.236Z,71.65
2022-12-18T11:18:45.176Z,71.86
2022-12-18T11:19:45.176Z,72.81
2022-12-18T11:20:45.136Z,72.56
2022-12-18T11:21:45.130Z,73.20
2022-12-18T11:22:46.109Z,73.20
2022-12-18T11:23:45.153Z,73.83
2022-12-18T11:24:53.242Z,72.32
2022-12-18T11:25:47.097Z,72.29
2022-12-18T11:26:45.061Z,72.50
2022-12-18T11:27:45.052Z,72.67
2022-12-18T11:28:45.440Z,72.15
2022-12-18T11:29:46.845Z,72.57
2022-12-18T11:30:46.053Z,72.36
2022-12-18T11:31:45.067Z,73.52
2022-12-18T11:32:45.019Z,74.15
2022-12-18T11:34:04.859Z,73.83
2022-12-18T11:34:46.012Z,74.15
2022-12-18T11:35:45.028Z,73.41
2022-12-18T11:36:44.992Z,72.89
2022-12-18T11:37:44.952Z,73.63
2022-12-18T11:38:45.060Z,73.52
2022-12-18T11:39:44.945Z,73.73
2022-12-18T11:40:44.935Z,74.05
2022-12-18T11:41:44.957Z,73.94
2022-12-18T11:42:44.943Z,74.05
2022-12-18T11:43:44.943Z,74.05
2022-12-18T11:44:44.906Z,74.29
2022-12-18T11:45:44.895Z,74.99
2022-12-18T11:46:44.942Z,75.21
2022-12-18T11:47:44.872Z,74.37
2022-12-18T11:48:44.885Z,74.68
2022-12-18T11:49:44.949Z,74.85
2022-12-18T11:50:44.857Z,74.96
2022-12-18T11:51:44.871Z,75.27
2022-12-18T11:52:44.841Z,74.75
2022-12-18T11:53:44.820Z,73.91
2022-12-18T11:54:44.816Z,73.88
2022-12-18T11:55:44.800Z,73.70
2022-12-18T11:56:44.815Z,73.77
2022-12-18T11:57:44.775Z,73.35
2022-12-18T11:58:45.053Z,73.56
2022-12-18T11:59:44.751Z,72.50
2022-12-18T12:00:44.742Z,72.50
2022-12-18T12:01:45.062Z,73.21
2022-12-18T12:02:44.801Z,73.21
2022-12-18T12:03:45.373Z,73.10
2022-12-18T12:04:44.732Z,73.63
2022-12-18T12:05:44.800Z,73.21
2022-12-18T12:06:44.678Z,72.79
2022-12-18T12:07:44.702Z,72.44
2022-12-18T12:08:44.663Z,72.75
2022-12-18T12:09:44.666Z,72.68
2022-12-18T12:10:44.646Z,72.58
2022-12-18T12:11:44.633Z,73.32
2022-12-18T12:12:48.307Z,73.63
2022-12-18T12:13:45.627Z,73.74
2022-12-18T12:14:44.595Z,73.63
2022-12-18T12:15:44.620Z,73.21
2022-12-18T12:16:44.605Z,72.44
2022-12-18T12:17:44.571Z,73.39
2022-12-18T12:18:44.609Z,72.23
2022-12-18T12:19:44.583Z,72.86
2022-12-18T12:20:44.570Z,72.13
2022-12-18T12:21:44.621Z,72.44
2022-12-18T12:22:44.571Z,72.86
2022-12-18T12:23:44.992Z,72.13
2022-12-18T12:24:44.535Z,72.83
2022-12-18T12:25:44.547Z,72.30
2022-12-18T12:26:44.510Z,72.72
2022-12-18T12:27:44.494Z,72.38
2022-12-18T12:28:44.522Z,72.58
2022-12-18T12:29:44.467Z,72.16
2022-12-18T12:30:44.467Z,72.58
2022-12-18T12:31:44.481Z,72.80
2022-12-18T12:32:44.417Z,73.04
2022-12-18T12:33:44.592Z,72.93
2022-12-18T12:34:44.438Z,73.25
2022-12-18T12:35:44.405Z,73.91
2022-12-18T12:36:44.402Z,73.91
2022-12-18T12:37:44.455Z,73.91
2022-12-18T12:38:49.763Z,74.33
2022-12-18T12:39:46.395Z,75.07
2022-12-18T12:40:56.961Z,74.96
2022-12-18T12:41:46.419Z,74.76
2022-12-18T12:42:44.375Z,75.28
2022-12-18T12:43:50.442Z,75.59
2022-12-18T12:44:49.038Z,75.17
2022-12-18T12:45:45.314Z,76.01
2022-12-18T12:46:44.297Z,74.86
2022-12-18T12:47:45.306Z,75.67
2022-12-18T12:48:44.622Z,75.56
2022-12-18T12:49:44.273Z,75.56
2022-12-18T12:50:44.275Z,75.35
2022-12-18T12:51:44.238Z,75.77
2022-12-18T12:52:44.256Z,76.51
2022-12-18T12:53:44.841Z,76.29